MWCB

Gerrard Smith International Airport

Cayman Brac, Cayman Islands
TAF MWCB 241700Z 2418/2518 080010KT 9999 VCSH FEW018
Issued Valid From Valid To
Sep-24 @ 17:00 UTC
(24 hours ago)
Sep-24 @ 18:00 UTC
(23 hours ago)
Sep-25 @ 18:00 UTC
(in 43 minutes)
Sep-24 @ 18:00 to Sep-25 @ 18:00
TAF MWCB 241700Z 2418/2518 080010KT 9999 VCSH FEW018
Wind Visibility Clouds
80° at 10 knots 10,000+ meters
  • Few at 1,800' AGL
TAF MWCB 241700Z 2418/2518 080010KT 9999 VCSH FEW018
Issued Sep-24 @ 17:00 UTC
(24 hours ago)
Valid From Sep-24 @ 18:00 UTC
(23 hours ago)
Valid To Sep-25 @ 18:00 UTC
(in 43 minutes)
Sep-24 @ 18:00 - Sep-25 @ 18:00
Wind Visibility
80° at 10 knots 10,000+ meters
Clouds
  • Few at 1,800' AGL